Standing Rock, South Dakota
Current Conditions -  °F | °C
As of 10:52 AM on Monday 24 Nov 2014 (Local Time) from KMBG Reporting Station
Clear Clear  
Wind Chill:   Ceiling: Unl
Heat Index: 24°   Visibility: 10mi
Dew Point: 10°   Wind: 22mph
Humidity: 55%   Direction: 330°NNW
Pressure: 29.86"   Gusts: 28mph
Location:  45.7843°N, 100.515°W
Report Text: KMBG 241752Z AUTO 33019G24KT 10SM CLR M04/M12 A2986 RMK AO2 SLP135 T10441122 11044 21083 51021
Loading
Personal Weather Stations






























Interactive Weather Map New forecast layout! Learn more

10-Day Weather Forecast

Advertisements
Track Severe Weather on mobile